Terminal Aerodrome Forecast
Issued by NWS

Home | Current Version | Previous Version | Text Only | Print | Product List | Glossary On
Versions: 1 2 3 4 5 6 7 8 9 10 11 12 13 14 15 16 17
000
FTUS45 KTFX 272320
TAFBZN
TAF
KBZN 272320Z 2800/2824 VRB06KT P6SM BKN060
      TEMPO 2800/2802 28010KT -SHRA SCT010 OVC030
     FM280200 28010KT 3SM -RASN BR SCT010 OVC030
     FM280600 27008KT P6SM SCT030 BKN050=

USA.gov is the U.S. government's official web portal to all federal, state and local government web resources and services.